sensor_id;sensor_type;location;lat;lon;timestamp;P1;durP1;ratioP1;P2;durP2;ratioP2
27113;SDS011;14648;49.730;8.614;2023-06-22T00:00:57;7.50;;;6.07;;
27113;SDS011;14648;49.730;8.614;2023-06-22T00:03:24;7.53;;;6.37;;
27113;SDS011;14648;49.730;8.614;2023-06-22T00:05:50;6.07;;;5.47;;
27113;SDS011;14648;49.730;8.614;2023-06-22T00:08:17;8.33;;;6.47;;
27113;SDS011;14648;49.730;8.614;2023-06-22T00:10:44;9.40;;;6.23;;
27113;SDS011;14648;49.730;8.614;2023-06-22T00:13:11;9.23;;;7.97;;
27113;SDS011;14648;49.730;8.614;2023-06-22T00:15:39;11.27;;;8.30;;
27113;SDS011;14648;49.730;8.614;2023-06-22T00:18:07;11.77;;;7.30;;
27113;SDS011;14648;49.730;8.614;2023-06-22T00:20:34;9.77;;;8.00;;
27113;SDS011;14648;49.730;8.614;2023-06-22T00:23:04;9.43;;;7.47;;
27113;SDS011;14648;49.730;8.614;2023-06-22T00:25:35;10.57;;;7.73;;
27113;SDS011;14648;49.730;8.614;2023-06-22T00:28:02;12.17;;;8.27;;
27113;SDS011;14648;49.730;8.614;2023-06-22T00:30:30;10.50;;;8.47;;
27113;SDS011;14648;49.730;8.614;2023-06-22T00:32:57;9.40;;;7.27;;
27113;SDS011;14648;49.730;8.614;2023-06-22T00:35:24;10.73;;;8.13;;
27113;SDS011;14648;49.730;8.614;2023-06-22T00:37:58;14.93;;;7.47;;
27113;SDS011;14648;49.730;8.614;2023-06-22T00:40:29;8.27;;;7.47;;
27113;SDS011;14648;49.730;8.614;2023-06-22T00:42:58;9.73;;;7.93;;
27113;SDS011;14648;49.730;8.614;2023-06-22T00:45:24;9.40;;;7.33;;
27113;SDS011;14648;49.730;8.614;2023-06-22T00:47:51;9.20;;;7.37;;
27113;SDS011;14648;49.730;8.614;2023-06-22T00:50:19;9.20;;;7.83;;
27113;SDS011;14648;49.730;8.614;2023-06-22T00:52:48;11.00;;;7.90;;
27113;SDS011;14648;49.730;8.614;2023-06-22T00:55:19;8.47;;;7.47;;
27113;SDS011;14648;49.730;8.614;2023-06-22T00:57:47;9.40;;;6.57;;
27113;SDS011;14648;49.730;8.614;2023-06-22T01:00:13;9.30;;;7.37;;
27113;SDS011;14648;49.730;8.614;2023-06-22T01:02:45;8.20;;;6.90;;
27113;SDS011;14648;49.730;8.614;2023-06-22T01:05:15;11.83;;;7.17;;
27113;SDS011;14648;49.730;8.614;2023-06-22T01:10:35;8.90;;;8.00;;
27113;SDS011;14648;49.730;8.614;2023-06-22T01:13:16;8.77;;;7.63;;
27113;SDS011;14648;49.730;8.614;2023-06-22T01:16:04;11.33;;;7.67;;
27113;SDS011;14648;49.730;8.614;2023-06-22T01:18:36;9.57;;;6.50;;
27113;SDS011;14648;49.730;8.614;2023-06-22T01:21:06;9.27;;;7.50;;
27113;SDS011;14648;49.730;8.614;2023-06-22T01:26:35;10.43;;;8.00;;
27113;SDS011;14648;49.730;8.614;2023-06-22T01:29:26;9.70;;;7.83;;
27113;SDS011;14648;49.730;8.614;2023-06-22T01:31:54;11.57;;;8.03;;
27113;SDS011;14648;49.730;8.614;2023-06-22T01:34:22;8.87;;;7.93;;
27113;SDS011;14648;49.730;8.614;2023-06-22T01:36:49;11.80;;;8.13;;
27113;SDS011;14648;49.730;8.614;2023-06-22T01:39:16;12.33;;;8.50;;
27113;SDS011;14648;49.730;8.614;2023-06-22T01:41:43;9.70;;;8.30;;
27113;SDS011;14648;49.730;8.614;2023-06-22T01:44:09;11.67;;;8.27;;
27113;SDS011;14648;49.730;8.614;2023-06-22T01:46:36;12.83;;;8.83;;
27113;SDS011;14648;49.730;8.614;2023-06-22T01:49:04;10.50;;;8.53;;
27113;SDS011;14648;49.730;8.614;2023-06-22T01:51:31;10.73;;;9.30;;
27113;SDS011;14648;49.730;8.614;2023-06-22T01:53:57;9.43;;;7.77;;
27113;SDS011;14648;49.730;8.614;2023-06-22T01:56:23;11.00;;;9.30;;
27113;SDS011;14648;49.730;8.614;2023-06-22T01:59:34;11.20;;;9.63;;
27113;SDS011;14648;49.730;8.614;2023-06-22T02:01:43;10.93;;;7.57;;
27113;SDS011;14648;49.730;8.614;2023-06-22T02:04:21;9.27;;;8.10;;
27113;SDS011;14648;49.730;8.614;2023-06-22T02:06:59;10.00;;;7.30;;
27113;SDS011;14648;49.730;8.614;2023-06-22T02:09:29;9.70;;;8.63;;
27113;SDS011;14648;49.730;8.614;2023-06-22T02:11:57;9.33;;;8.37;;
27113;SDS011;14648;49.730;8.614;2023-06-22T02:14:25;10.00;;;8.00;;
27113;SDS011;14648;49.730;8.614;2023-06-22T02:16:51;11.80;;;8.53;;
27113;SDS011;14648;49.730;8.614;2023-06-22T02:19:22;10.67;;;8.83;;
27113;SDS011;14648;49.730;8.614;2023-06-22T02:21:49;14.00;;;9.10;;
27113;SDS011;14648;49.730;8.614;2023-06-22T02:24:15;11.77;;;9.00;;
27113;SDS011;14648;49.730;8.614;2023-06-22T02:26:41;10.53;;;8.53;;
27113;SDS011;14648;49.730;8.614;2023-06-22T02:29:10;9.33;;;7.83;;
27113;SDS011;14648;49.730;8.614;2023-06-22T02:31:36;12.40;;;8.57;;
27113;SDS011;14648;49.730;8.614;2023-06-22T02:34:02;12.57;;;8.07;;
27113;SDS011;14648;49.730;8.614;2023-06-22T02:36:27;10.80;;;8.20;;
27113;SDS011;14648;49.730;8.614;2023-06-22T02:38:55;11.70;;;8.70;;
27113;SDS011;14648;49.730;8.614;2023-06-22T02:41:23;9.27;;;8.37;;
27113;SDS011;14648;49.730;8.614;2023-06-22T02:43:49;8.33;;;7.07;;
27113;SDS011;14648;49.730;8.614;2023-06-22T02:46:15;9.83;;;7.83;;
27113;SDS011;14648;49.730;8.614;2023-06-22T02:48:41;8.60;;;6.83;;
27113;SDS011;14648;49.730;8.614;2023-06-22T02:51:07;8.67;;;7.57;;
27113;SDS011;14648;49.730;8.614;2023-06-22T02:53:33;11.17;;;7.90;;
27113;SDS011;14648;49.730;8.614;2023-06-22T02:55:59;11.33;;;7.93;;
27113;SDS011;14648;49.730;8.614;2023-06-22T02:58:31;10.57;;;7.70;;
27113;SDS011;14648;49.730;8.614;2023-06-22T03:01:03;9.60;;;8.40;;
27113;SDS011;14648;49.730;8.614;2023-06-22T03:03:30;9.60;;;8.10;;
27113;SDS011;14648;49.730;8.614;2023-06-22T03:05:56;10.10;;;8.30;;
27113;SDS011;14648;49.730;8.614;2023-06-22T03:08:22;8.70;;;7.73;;
27113;SDS011;14648;49.730;8.614;2023-06-22T03:10:47;15.20;;;8.03;;
27113;SDS011;14648;49.730;8.614;2023-06-22T03:13:13;8.63;;;7.33;;
27113;SDS011;14648;49.730;8.614;2023-06-22T03:15:39;10.67;;;8.03;;
27113;SDS011;14648;49.730;8.614;2023-06-22T03:18:04;9.53;;;8.20;;
27113;SDS011;14648;49.730;8.614;2023-06-22T03:20:30;7.57;;;6.80;;
27113;SDS011;14648;49.730;8.614;2023-06-22T03:22:58;7.93;;;7.20;;
27113;SDS011;14648;49.730;8.614;2023-06-22T03:25:24;10.20;;;7.97;;
27113;SDS011;14648;49.730;8.614;2023-06-22T03:27:50;10.40;;;7.63;;
27113;SDS011;14648;49.730;8.614;2023-06-22T03:30:16;9.97;;;8.53;;
27113;SDS011;14648;49.730;8.614;2023-06-22T03:32:42;8.10;;;7.30;;
27113;SDS011;14648;49.730;8.614;2023-06-22T03:35:08;9.60;;;8.00;;
27113;SDS011;14648;49.730;8.614;2023-06-22T03:37:35;10.70;;;7.80;;
27113;SDS011;14648;49.730;8.614;2023-06-22T03:40:00;10.43;;;6.93;;
27113;SDS011;14648;49.730;8.614;2023-06-22T03:42:28;8.67;;;7.47;;
27113;SDS011;14648;49.730;8.614;2023-06-22T03:44:54;8.63;;;7.37;;
27113;SDS011;14648;49.730;8.614;2023-06-22T03:47:20;9.50;;;8.53;;
27113;SDS011;14648;49.730;8.614;2023-06-22T03:49:45;9.70;;;7.37;;
27113;SDS011;14648;49.730;8.614;2023-06-22T03:52:11;11.23;;;7.63;;
27113;SDS011;14648;49.730;8.614;2023-06-22T03:54:37;10.20;;;8.43;;
27113;SDS011;14648;49.730;8.614;2023-06-22T03:57:02;8.63;;;7.43;;
27113;SDS011;14648;49.730;8.614;2023-06-22T03:59:28;11.67;;;7.93;;
27113;SDS011;14648;49.730;8.614;2023-06-22T04:01:54;9.90;;;7.70;;
27113;SDS011;14648;49.730;8.614;2023-06-22T04:04:20;7.73;;;7.03;;
27113;SDS011;14648;49.730;8.614;2023-06-22T04:06:46;10.97;;;8.03;;
27113;SDS011;14648;49.730;8.614;2023-06-22T04:09:11;9.47;;;7.00;;
27113;SDS011;14648;49.730;8.614;2023-06-22T04:11:37;13.20;;;8.10;;
27113;SDS011;14648;49.730;8.614;2023-06-22T04:14:03;13.60;;;7.33;;
27113;SDS011;14648;49.730;8.614;2023-06-22T04:16:28;11.73;;;7.90;;
27113;SDS011;14648;49.730;8.614;2023-06-22T04:18:54;8.50;;;7.27;;
27113;SDS011;14648;49.730;8.614;2023-06-22T04:21:20;10.50;;;7.30;;
27113;SDS011;14648;49.730;8.614;2023-06-22T04:23:45;8.90;;;7.33;;
27113;SDS011;14648;49.730;8.614;2023-06-22T04:26:12;10.97;;;7.90;;
27113;SDS011;14648;49.730;8.614;2023-06-22T04:28:39;9.23;;;7.40;;
27113;SDS011;14648;49.730;8.614;2023-06-22T04:31:05;7.20;;;6.30;;
27113;SDS011;14648;49.730;8.614;2023-06-22T04:33:31;11.50;;;8.90;;
27113;SDS011;14648;49.730;8.614;2023-06-22T04:35:57;11.60;;;7.40;;
27113;SDS011;14648;49.730;8.614;2023-06-22T04:38:26;10.77;;;8.13;;
27113;SDS011;14648;49.730;8.614;2023-06-22T04:40:52;9.80;;;7.60;;
27113;SDS011;14648;49.730;8.614;2023-06-22T04:43:18;9.33;;;8.37;;
27113;SDS011;14648;49.730;8.614;2023-06-22T04:45:44;12.90;;;9.83;;
27113;SDS011;14648;49.730;8.614;2023-06-22T04:48:10;9.00;;;7.33;;
27113;SDS011;14648;49.730;8.614;2023-06-22T04:50:41;9.20;;;7.13;;
27113;SDS011;14648;49.730;8.614;2023-06-22T04:53:07;12.30;;;8.53;;
27113;SDS011;14648;49.730;8.614;2023-06-22T04:55:34;8.67;;;7.77;;
27113;SDS011;14648;49.730;8.614;2023-06-22T04:58:02;15.10;;;9.67;;
27113;SDS011;14648;49.730;8.614;2023-06-22T05:00:29;11.83;;;8.90;;
27113;SDS011;14648;49.730;8.614;2023-06-22T05:02:56;11.67;;;9.07;;
27113;SDS011;14648;49.730;8.614;2023-06-22T05:05:23;12.40;;;8.30;;
27113;SDS011;14648;49.730;8.614;2023-06-22T05:07:50;11.10;;;8.93;;
27113;SDS011;14648;49.730;8.614;2023-06-22T05:10:18;12.03;;;8.53;;
27113;SDS011;14648;49.730;8.614;2023-06-22T05:12:45;11.53;;;8.40;;
27113;SDS011;14648;49.730;8.614;2023-06-22T05:15:11;10.33;;;8.00;;
27113;SDS011;14648;49.730;8.614;2023-06-22T05:17:37;9.60;;;8.47;;
27113;SDS011;14648;49.730;8.614;2023-06-22T05:20:10;11.20;;;8.83;;
27113;SDS011;14648;49.730;8.614;2023-06-22T05:22:37;10.20;;;8.80;;
27113;SDS011;14648;49.730;8.614;2023-06-22T05:25:08;11.77;;;8.00;;
27113;SDS011;14648;49.730;8.614;2023-06-22T05:27:36;7.90;;;7.10;;
27113;SDS011;14648;49.730;8.614;2023-06-22T05:30:09;9.87;;;7.57;;
27113;SDS011;14648;49.730;8.614;2023-06-22T05:32:35;11.77;;;8.23;;
27113;SDS011;14648;49.730;8.614;2023-06-22T05:35:04;9.17;;;8.03;;
27113;SDS011;14648;49.730;8.614;2023-06-22T05:37:30;9.70;;;7.03;;
27113;SDS011;14648;49.730;8.614;2023-06-22T05:39:56;9.13;;;7.17;;
27113;SDS011;14648;49.730;8.614;2023-06-22T05:42:22;9.03;;;8.03;;
27113;SDS011;14648;49.730;8.614;2023-06-22T05:44:50;10.10;;;7.63;;
27113;SDS011;14648;49.730;8.614;2023-06-22T05:47:18;11.77;;;8.67;;
27113;SDS011;14648;49.730;8.614;2023-06-22T05:49:44;9.13;;;8.13;;
27113;SDS011;14648;49.730;8.614;2023-06-22T05:52:09;11.00;;;7.43;;
27113;SDS011;14648;49.730;8.614;2023-06-22T05:54:35;9.80;;;7.70;;
27113;SDS011;14648;49.730;8.614;2023-06-22T05:57:01;13.37;;;7.83;;
27113;SDS011;14648;49.730;8.614;2023-06-22T05:59:27;11.20;;;8.00;;
27113;SDS011;14648;49.730;8.614;2023-06-22T06:01:52;11.93;;;7.70;;
27113;SDS011;14648;49.730;8.614;2023-06-22T06:04:18;10.50;;;7.90;;
27113;SDS011;14648;49.730;8.614;2023-06-22T06:06:44;9.87;;;7.97;;
27113;SDS011;14648;49.730;8.614;2023-06-22T06:09:12;9.13;;;7.03;;
27113;SDS011;14648;49.730;8.614;2023-06-22T06:11:39;8.97;;;7.33;;
27113;SDS011;14648;49.730;8.614;2023-06-22T06:14:04;11.20;;;8.00;;
27113;SDS011;14648;49.730;8.614;2023-06-22T06:16:31;11.50;;;7.63;;
27113;SDS011;14648;49.730;8.614;2023-06-22T06:18:57;8.00;;;7.20;;
27113;SDS011;14648;49.730;8.614;2023-06-22T06:21:23;7.97;;;7.17;;
27113;SDS011;14648;49.730;8.614;2023-06-22T06:23:49;8.57;;;7.67;;
27113;SDS011;14648;49.730;8.614;2023-06-22T06:26:15;13.20;;;9.17;;
27113;SDS011;14648;49.730;8.614;2023-06-22T06:28:42;8.30;;;7.30;;
27113;SDS011;14648;49.730;8.614;2023-06-22T06:31:09;10.17;;;7.90;;
27113;SDS011;14648;49.730;8.614;2023-06-22T06:33:35;10.27;;;8.20;;
27113;SDS011;14648;49.730;8.614;2023-06-22T06:36:01;10.63;;;8.10;;
27113;SDS011;14648;49.730;8.614;2023-06-22T06:38:28;8.57;;;7.50;;
27113;SDS011;14648;49.730;8.614;2023-06-22T06:40:55;10.07;;;7.23;;
27113;SDS011;14648;49.730;8.614;2023-06-22T06:43:21;10.63;;;8.50;;
27113;SDS011;14648;49.730;8.614;2023-06-22T06:45:47;8.23;;;7.43;;
27113;SDS011;14648;49.730;8.614;2023-06-22T06:48:13;8.87;;;7.70;;
27113;SDS011;14648;49.730;8.614;2023-06-22T06:50:39;9.33;;;7.80;;
27113;SDS011;14648;49.730;8.614;2023-06-22T06:53:05;8.67;;;7.80;;
27113;SDS011;14648;49.730;8.614;2023-06-22T06:55:31;12.03;;;8.63;;
27113;SDS011;14648;49.730;8.614;2023-06-22T06:57:58;9.80;;;7.30;;
27113;SDS011;14648;49.730;8.614;2023-06-22T07:00:24;7.50;;;6.80;;
27113;SDS011;14648;49.730;8.614;2023-06-22T07:02:51;11.13;;;7.70;;
27113;SDS011;14648;49.730;8.614;2023-06-22T07:05:17;10.37;;;8.30;;
27113;SDS011;14648;49.730;8.614;2023-06-22T07:07:43;11.20;;;8.43;;
27113;SDS011;14648;49.730;8.614;2023-06-22T07:10:09;10.73;;;8.07;;
27113;SDS011;14648;49.730;8.614;2023-06-22T07:12:35;10.17;;;7.87;;
27113;SDS011;14648;49.730;8.614;2023-06-22T07:15:02;9.27;;;6.40;;
27113;SDS011;14648;49.730;8.614;2023-06-22T07:17:38;14.67;;;10.30;;
27113;SDS011;14648;49.730;8.614;2023-06-22T07:20:06;9.70;;;7.77;;
27113;SDS011;14648;49.730;8.614;2023-06-22T07:22:42;12.80;;;8.50;;
27113;SDS011;14648;49.730;8.614;2023-06-22T07:25:12;9.67;;;8.50;;
27113;SDS011;14648;49.730;8.614;2023-06-22T07:27:44;10.90;;;7.90;;
27113;SDS011;14648;49.730;8.614;2023-06-22T07:30:30;11.03;;;8.63;;
27113;SDS011;14648;49.730;8.614;2023-06-22T07:32:57;10.67;;;8.37;;
27113;SDS011;14648;49.730;8.614;2023-06-22T07:35:23;8.27;;;7.47;;
27113;SDS011;14648;49.730;8.614;2023-06-22T07:37:49;8.70;;;7.50;;
27113;SDS011;14648;49.730;8.614;2023-06-22T07:40:15;8.10;;;7.30;;
27113;SDS011;14648;49.730;8.614;2023-06-22T07:42:41;9.47;;;8.37;;
27113;SDS011;14648;49.730;8.614;2023-06-22T07:45:07;11.27;;;8.47;;
27113;SDS011;14648;49.730;8.614;2023-06-22T07:47:33;10.30;;;7.75;;
27113;SDS011;14648;49.730;8.614;2023-06-22T07:50:03;11.82;;;8.77;;
27113;SDS011;14648;49.730;8.614;2023-06-22T07:52:29;9.15;;;8.18;;
27113;SDS011;14648;49.730;8.614;2023-06-22T07:54:55;13.67;;;8.67;;
27113;SDS011;14648;49.730;8.614;2023-06-22T07:57:21;10.33;;;8.33;;
27113;SDS011;14648;49.730;8.614;2023-06-22T07:59:47;9.30;;;8.30;;
27113;SDS011;14648;49.730;8.614;2023-06-22T08:02:13;11.40;;;9.55;;
27113;SDS011;14648;49.730;8.614;2023-06-22T08:04:38;9.57;;;8.52;;
27113;SDS011;14648;49.730;8.614;2023-06-22T08:07:04;13.02;;;9.35;;
27113;SDS011;14648;49.730;8.614;2023-06-22T08:09:31;14.20;;;8.93;;
27113;SDS011;14648;49.730;8.614;2023-06-22T08:11:58;8.55;;;7.18;;
27113;SDS011;14648;49.730;8.614;2023-06-22T08:14:27;8.57;;;7.68;;
27113;SDS011;14648;49.730;8.614;2023-06-22T08:16:57;11.23;;;9.00;;
27113;SDS011;14648;49.730;8.614;2023-06-22T08:19:23;9.63;;;8.40;;
27113;SDS011;14648;49.730;8.614;2023-06-22T08:21:49;11.48;;;7.30;;
27113;SDS011;14648;49.730;8.614;2023-06-22T08:24:14;8.80;;;7.90;;
27113;SDS011;14648;49.730;8.614;2023-06-22T08:26:40;10.98;;;8.43;;
27113;SDS011;14648;49.730;8.614;2023-06-22T08:29:06;8.57;;;7.70;;
27113;SDS011;14648;49.730;8.614;2023-06-22T08:31:31;9.15;;;8.25;;
27113;SDS011;14648;49.730;8.614;2023-06-22T08:33:59;9.57;;;8.55;;
27113;SDS011;14648;49.730;8.614;2023-06-22T08:36:25;8.98;;;7.38;;
27113;SDS011;14648;49.730;8.614;2023-06-22T08:38:54;11.45;;;7.57;;
27113;SDS011;14648;49.730;8.614;2023-06-22T08:41:26;11.23;;;9.93;;
27113;SDS011;14648;49.730;8.614;2023-06-22T08:43:52;8.43;;;7.65;;
27113;SDS011;14648;49.730;8.614;2023-06-22T08:46:18;10.10;;;7.40;;
27113;SDS011;14648;49.730;8.614;2023-06-22T08:48:48;8.20;;;7.50;;
27113;SDS011;14648;49.730;8.614;2023-06-22T08:51:15;9.82;;;8.13;;
27113;SDS011;14648;49.730;8.614;2023-06-22T08:53:42;11.70;;;8.77;;
27113;SDS011;14648;49.730;8.614;2023-06-22T08:56:10;11.15;;;8.57;;
27113;SDS011;14648;49.730;8.614;2023-06-22T08:58:38;10.45;;;7.13;;
27113;SDS011;14648;49.730;8.614;2023-06-22T09:01:04;8.13;;;7.32;;
27113;SDS011;14648;49.730;8.614;2023-06-22T09:03:29;9.55;;;8.05;;
27113;SDS011;14648;49.730;8.614;2023-06-22T09:05:57;12.75;;;8.82;;
27113;SDS011;14648;49.730;8.614;2023-06-22T09:08:23;9.38;;;8.00;;
27113;SDS011;14648;49.730;8.614;2023-06-22T09:10:49;11.15;;;8.80;;
27113;SDS011;14648;49.730;8.614;2023-06-22T09:13:15;8.60;;;7.72;;
27113;SDS011;14648;49.730;8.614;2023-06-22T09:15:40;9.18;;;8.23;;
27113;SDS011;14648;49.730;8.614;2023-06-22T09:18:06;8.45;;;7.65;;
27113;SDS011;14648;49.730;8.614;2023-06-22T09:20:36;8.57;;;6.65;;
27113;SDS011;14648;49.730;8.614;2023-06-22T09:23:01;7.68;;;7.00;;
27113;SDS011;14648;49.730;8.614;2023-06-22T09:25:27;12.55;;;8.48;;
27113;SDS011;14648;49.730;8.614;2023-06-22T09:27:53;8.02;;;7.32;;
27113;SDS011;14648;49.730;8.614;2023-06-22T09:30:19;9.35;;;7.32;;
27113;SDS011;14648;49.730;8.614;2023-06-22T09:32:44;8.68;;;7.80;;
27113;SDS011;14648;49.730;8.614;2023-06-22T09:35:10;6.97;;;6.38;;
27113;SDS011;14648;49.730;8.614;2023-06-22T09:37:38;10.13;;;6.47;;
27113;SDS011;14648;49.730;8.614;2023-06-22T09:40:05;7.53;;;6.78;;
27113;SDS011;14648;49.730;8.614;2023-06-22T09:42:36;7.28;;;6.55;;
27113;SDS011;14648;49.730;8.614;2023-06-22T09:45:02;7.43;;;6.70;;
27113;SDS011;14648;49.730;8.614;2023-06-22T09:47:28;11.10;;;6.43;;
27113;SDS011;14648;49.730;8.614;2023-06-22T09:49:54;7.40;;;6.70;;
27113;SDS011;14648;49.730;8.614;2023-06-22T09:52:20;7.43;;;6.72;;
27113;SDS011;14648;49.730;8.614;2023-06-22T09:54:47;6.80;;;5.85;;
27113;SDS011;14648;49.730;8.614;2023-06-22T09:57:12;11.48;;;6.70;;
27113;SDS011;14648;49.730;8.614;2023-06-22T09:59:38;7.28;;;6.57;;
27113;SDS011;14648;49.730;8.614;2023-06-22T10:02:07;12.15;;;7.07;;
27113;SDS011;14648;49.730;8.614;2023-06-22T10:04:33;6.90;;;6.13;;
27113;SDS011;14648;49.730;8.614;2023-06-22T10:07:00;7.00;;;6.30;;
27113;SDS011;14648;49.730;8.614;2023-06-22T10:09:26;8.88;;;7.00;;
27113;SDS011;14648;49.730;8.614;2023-06-22T10:11:52;6.85;;;6.22;;
27113;SDS011;14648;49.730;8.614;2023-06-22T10:14:18;10.07;;;6.57;;
27113;SDS011;14648;49.730;8.614;2023-06-22T10:16:44;7.50;;;6.57;;
27113;SDS011;14648;49.730;8.614;2023-06-22T10:19:09;7.78;;;6.60;;
27113;SDS011;14648;49.730;8.614;2023-06-22T10:21:35;7.18;;;6.45;;
27113;SDS011;14648;49.730;8.614;2023-06-22T10:24:01;6.65;;;6.00;;
27113;SDS011;14648;49.730;8.614;2023-06-22T10:26:31;10.13;;;5.95;;
27113;SDS011;14648;49.730;8.614;2023-06-22T10:28:58;7.10;;;6.50;;
27113;SDS011;14648;49.730;8.614;2023-06-22T10:31:24;8.38;;;6.75;;
27113;SDS011;14648;49.730;8.614;2023-06-22T10:33:50;6.55;;;5.80;;
27113;SDS011;14648;49.730;8.614;2023-06-22T10:36:19;7.40;;;6.70;;
27113;SDS011;14648;49.730;8.614;2023-06-22T10:38:45;8.23;;;6.28;;
27113;SDS011;14648;49.730;8.614;2023-06-22T10:41:12;7.57;;;6.65;;
27113;SDS011;14648;49.730;8.614;2023-06-22T10:43:38;8.20;;;6.60;;
27113;SDS011;14648;49.730;8.614;2023-06-22T10:46:03;14.35;;;6.13;;
27113;SDS011;14648;49.730;8.614;2023-06-22T10:48:29;9.13;;;6.65;;
27113;SDS011;14648;49.730;8.614;2023-06-22T10:50:55;7.57;;;6.53;;
27113;SDS011;14648;49.730;8.614;2023-06-22T10:53:21;7.18;;;6.47;;
27113;SDS011;14648;49.730;8.614;2023-06-22T10:55:47;10.38;;;7.03;;
27113;SDS011;14648;49.730;8.614;2023-06-22T10:58:13;7.80;;;6.65;;
27113;SDS011;14648;49.730;8.614;2023-06-22T11:00:38;8.25;;;7.45;;
27113;SDS011;14648;49.730;8.614;2023-06-22T11:03:04;10.00;;;7.38;;
27113;SDS011;14648;49.730;8.614;2023-06-22T11:05:30;8.55;;;6.22;;
27113;SDS011;14648;49.730;8.614;2023-06-22T11:07:56;8.80;;;5.43;;
27113;SDS011;14648;49.730;8.614;2023-06-22T11:10:22;10.80;;;5.95;;
27113;SDS011;14648;49.730;8.614;2023-06-22T11:12:47;6.85;;;5.53;;
27113;SDS011;14648;49.730;8.614;2023-06-22T11:15:13;27.23;;;5.82;;
27113;SDS011;14648;49.730;8.614;2023-06-22T11:17:39;9.85;;;6.32;;
27113;SDS011;14648;49.730;8.614;2023-06-22T11:20:04;7.93;;;5.65;;
27113;SDS011;14648;49.730;8.614;2023-06-22T11:22:36;9.70;;;6.32;;
27113;SDS011;14648;49.730;8.614;2023-06-22T11:25:04;8.18;;;5.63;;
27113;SDS011;14648;49.730;8.614;2023-06-22T11:27:31;8.02;;;6.70;;
27113;SDS011;14648;49.730;8.614;2023-06-22T11:29:57;5.95;;;5.00;;
27113;SDS011;14648;49.730;8.614;2023-06-22T11:32:23;8.32;;;6.03;;
27113;SDS011;14648;49.730;8.614;2023-06-22T11:34:49;10.30;;;6.18;;
27113;SDS011;14648;49.730;8.614;2023-06-22T11:37:15;8.38;;;6.20;;
27113;SDS011;14648;49.730;8.614;2023-06-22T11:39:41;10.57;;;5.78;;
27113;SDS011;14648;49.730;8.614;2023-06-22T11:42:08;7.40;;;5.70;;
27113;SDS011;14648;49.730;8.614;2023-06-22T11:44:34;6.43;;;5.82;;
27113;SDS011;14648;49.730;8.614;2023-06-22T11:47:00;12.25;;;6.43;;
27113;SDS011;14648;49.730;8.614;2023-06-22T11:49:28;7.00;;;5.78;;
27113;SDS011;14648;49.730;8.614;2023-06-22T11:51:55;7.25;;;4.95;;
27113;SDS011;14648;49.730;8.614;2023-06-22T11:54:21;9.77;;;6.13;;
27113;SDS011;14648;49.730;8.614;2023-06-22T11:56:46;8.40;;;5.60;;
27113;SDS011;14648;49.730;8.614;2023-06-22T11:59:12;7.47;;;5.15;;
27113;SDS011;14648;49.730;8.614;2023-06-22T12:01:38;13.38;;;5.85;;
27113;SDS011;14648;49.730;8.614;2023-06-22T12:04:04;5.10;;;4.68;;
27113;SDS011;14648;49.730;8.614;2023-06-22T12:06:35;10.55;;;5.15;;
27113;SDS011;14648;49.730;8.614;2023-06-22T12:09:03;8.40;;;5.50;;
27113;SDS011;14648;49.730;8.614;2023-06-22T12:11:32;11.57;;;5.55;;
27113;SDS011;14648;49.730;8.614;2023-06-22T12:13:58;8.90;;;5.40;;
27113;SDS011;14648;49.730;8.614;2023-06-22T12:16:27;13.32;;;5.65;;
27113;SDS011;14648;49.730;8.614;2023-06-22T12:18:53;7.60;;;5.40;;
27113;SDS011;14648;49.730;8.614;2023-06-22T12:21:19;8.25;;;5.65;;
27113;SDS011;14648;49.730;8.614;2023-06-22T12:23:47;16.52;;;5.97;;
27113;SDS011;14648;49.730;8.614;2023-06-22T12:26:13;5.57;;;4.88;;
27113;SDS011;14648;49.730;8.614;2023-06-22T12:28:39;11.20;;;5.10;;
27113;SDS011;14648;49.730;8.614;2023-06-22T12:31:05;6.85;;;4.85;;
27113;SDS011;14648;49.730;8.614;2023-06-22T12:33:30;10.77;;;5.63;;
27113;SDS011;14648;49.730;8.614;2023-06-22T12:35:56;10.52;;;5.20;;
27113;SDS011;14648;49.730;8.614;2023-06-22T12:38:22;6.35;;;5.22;;
27113;SDS011;14648;49.730;8.614;2023-06-22T12:40:50;7.85;;;5.25;;
27113;SDS011;14648;49.730;8.614;2023-06-22T12:43:16;5.43;;;4.85;;
27113;SDS011;14648;49.730;8.614;2023-06-22T12:45:42;9.38;;;5.57;;
27113;SDS011;14648;49.730;8.614;2023-06-22T12:48:07;8.52;;;4.88;;
27113;SDS011;14648;49.730;8.614;2023-06-22T12:50:33;8.80;;;4.95;;
27113;SDS011;14648;49.730;8.614;2023-06-22T12:52:59;6.32;;;4.35;;
27113;SDS011;14648;49.730;8.614;2023-06-22T12:55:27;6.53;;;5.35;;
27113;SDS011;14648;49.730;8.614;2023-06-22T12:57:53;7.97;;;4.40;;
27113;SDS011;14648;49.730;8.614;2023-06-22T13:00:18;10.50;;;4.82;;
27113;SDS011;14648;49.730;8.614;2023-06-22T13:02:44;9.98;;;5.22;;
27113;SDS011;14648;49.730;8.614;2023-06-22T13:05:10;10.98;;;5.30;;
27113;SDS011;14648;49.730;8.614;2023-06-22T13:07:37;10.75;;;5.43;;
27113;SDS011;14648;49.730;8.614;2023-06-22T13:10:05;11.63;;;4.90;;
27113;SDS011;14648;49.730;8.614;2023-06-22T13:12:32;6.45;;;5.05;;
27113;SDS011;14648;49.730;8.614;2023-06-22T13:14:57;6.63;;;4.93;;
27113;SDS011;14648;49.730;8.614;2023-06-22T13:17:28;11.07;;;5.75;;
27113;SDS011;14648;49.730;8.614;2023-06-22T13:19:54;7.40;;;5.63;;
27113;SDS011;14648;49.730;8.614;2023-06-22T13:22:27;14.88;;;5.00;;
27113;SDS011;14648;49.730;8.614;2023-06-22T13:24:59;7.50;;;4.78;;
27113;SDS011;14648;49.730;8.614;2023-06-22T13:27:27;13.43;;;5.22;;
27113;SDS011;14648;49.730;8.614;2023-06-22T13:29:53;11.20;;;4.57;;
27113;SDS011;14648;49.730;8.614;2023-06-22T13:32:19;8.65;;;5.03;;
27113;SDS011;14648;49.730;8.614;2023-06-22T13:34:45;8.15;;;5.38;;
27113;SDS011;14648;49.730;8.614;2023-06-22T13:37:14;8.20;;;4.65;;
27113;SDS011;14648;49.730;8.614;2023-06-22T13:39:46;7.65;;;4.10;;
27113;SDS011;14648;49.730;8.614;2023-06-22T13:42:14;10.32;;;5.05;;
27113;SDS011;14648;49.730;8.614;2023-06-22T13:44:40;8.30;;;5.82;;
27113;SDS011;14648;49.730;8.614;2023-06-22T13:47:06;7.63;;;4.30;;
27113;SDS011;14648;49.730;8.614;2023-06-22T13:49:32;8.38;;;4.07;;
27113;SDS011;14648;49.730;8.614;2023-06-22T13:51:58;5.25;;;4.03;;
27113;SDS011;14648;49.730;8.614;2023-06-22T13:54:24;9.27;;;5.05;;
27113;SDS011;14648;49.730;8.614;2023-06-22T13:56:50;5.90;;;4.20;;
27113;SDS011;14648;49.730;8.614;2023-06-22T13:59:16;15.93;;;4.40;;
27113;SDS011;14648;49.730;8.614;2023-06-22T14:01:41;6.07;;;4.30;;
27113;SDS011;14648;49.730;8.614;2023-06-22T14:04:08;12.52;;;4.82;;
27113;SDS011;14648;49.730;8.614;2023-06-22T14:06:34;9.18;;;4.50;;
27113;SDS011;14648;49.730;8.614;2023-06-22T14:09:00;10.07;;;4.10;;
27113;SDS011;14648;49.730;8.614;2023-06-22T14:11:26;8.25;;;4.03;;
27113;SDS011;14648;49.730;8.614;2023-06-22T14:13:54;8.50;;;4.20;;
27113;SDS011;14648;49.730;8.614;2023-06-22T14:16:20;9.85;;;3.67;;
27113;SDS011;14648;49.730;8.614;2023-06-22T14:18:48;4.50;;;4.10;;
27113;SDS011;14648;49.730;8.614;2023-06-22T14:21:16;9.07;;;4.32;;
27113;SDS011;14648;49.730;8.614;2023-06-22T14:23:44;6.65;;;4.82;;
27113;SDS011;14648;49.730;8.614;2023-06-22T14:26:14;8.50;;;4.47;;
27113;SDS011;14648;49.730;8.614;2023-06-22T14:28:43;6.75;;;3.72;;
27113;SDS011;14648;49.730;8.614;2023-06-22T14:31:13;10.07;;;4.82;;
27113;SDS011;14648;49.730;8.614;2023-06-22T14:33:40;9.60;;;5.25;;
27113;SDS011;14648;49.730;8.614;2023-06-22T14:36:05;8.40;;;4.53;;
27113;SDS011;14648;49.730;8.614;2023-06-22T14:38:35;6.93;;;4.18;;
27113;SDS011;14648;49.730;8.614;2023-06-22T14:41:01;7.13;;;4.40;;
27113;SDS011;14648;49.730;8.614;2023-06-22T14:43:26;7.72;;;4.15;;
27113;SDS011;14648;49.730;8.614;2023-06-22T14:45:52;14.30;;;5.68;;
27113;SDS011;14648;49.730;8.614;2023-06-22T14:48:18;8.20;;;5.40;;